Heat Index [SAI AWOS/ASOS Display]_________FAA Disclaimer: "Not for use in aviation at this time______________" Untitled Document
Columbia County Airport
000
14:15
17/09/13
00
N/A
N/A
29.95
N/A
196
61(F), 16(C)
60(F), 16(C)
61 F
100%
OVC002
10
N/A
P0003
N/A
14:15 zulu Wind Calm, Altimeter 29.95
METAR K1B1 131415Z AUTO 00000KT 10SM OVC002 16/16 A2995 A02 P0003
METAR:
FAA Disclaimer--Advisory Use ONLY, not for flight info-- 4/24/2017: Test.... New UNICOM frequency change to 123.050 mhz .... new URL for cellphones , smartphones ... http://www.saiawos2.com/1B1 --- AWOS frequency 133.525 MHz , dial in 518-828-2577, -------, NEW AWOS installed 03/03/2010 ---- ,
INFO:
Wind Direction:
Wind Speed:
Wind Gust:
Wind Variable:
Altimeter:
Dens Alt:
Elev:
Temp:
Dwpt:
Wind Chill
Rel Humidity:
Ceiling:
Visibility:
Prsnt Wea:
PCPN:
Remarks:
NOTICE--Current weather data is more than 15 minutes old. The SAI AWOS/ASOS Display is inoperative at this time.
How to read the WebPage